sensor_id;sensor_type;location;lat;lon;timestamp;temperature;humidity
5802;DHT22;2927;49.366;8.530;2024-01-06T00:02:24;3.90;1.00
5802;DHT22;2927;49.366;8.530;2024-01-06T00:04:49;3.80;1.00
5802;DHT22;2927;49.366;8.530;2024-01-06T00:07:15;3.80;1.00
5802;DHT22;2927;49.366;8.530;2024-01-06T00:09:41;3.70;1.00
5802;DHT22;2927;49.366;8.530;2024-01-06T00:12:06;3.80;23.00
5802;DHT22;2927;49.366;8.530;2024-01-06T00:14:32;3.80;40.90
5802;DHT22;2927;49.366;8.530;2024-01-06T00:16:58;3.80;15.70
5802;DHT22;2927;49.366;8.530;2024-01-06T00:19:23;3.80;46.60
5802;DHT22;2927;49.366;8.530;2024-01-06T00:21:49;3.80;45.40
5802;DHT22;2927;49.366;8.530;2024-01-06T00:24:14;3.80;40.40
5802;DHT22;2927;49.366;8.530;2024-01-06T00:26:40;3.80;48.80
5802;DHT22;2927;49.366;8.530;2024-01-06T00:29:05;3.80;44.20
5802;DHT22;2927;49.366;8.530;2024-01-06T00:31:31;3.70;28.50
5802;DHT22;2927;49.366;8.530;2024-01-06T00:33:56;3.70;44.70
5802;DHT22;2927;49.366;8.530;2024-01-06T00:36:22;3.70;25.10
5802;DHT22;2927;49.366;8.530;2024-01-06T00:38:48;3.60;59.50
5802;DHT22;2927;49.366;8.530;2024-01-06T00:41:13;3.50;93.40
5802;DHT22;2927;49.366;8.530;2024-01-06T00:43:39;3.50;99.90
5802;DHT22;2927;49.366;8.530;2024-01-06T00:46:04;3.40;99.90
5802;DHT22;2927;49.366;8.530;2024-01-06T00:48:30;3.50;99.90
5802;DHT22;2927;49.366;8.530;2024-01-06T00:50:56;3.50;99.90
5802;DHT22;2927;49.366;8.530;2024-01-06T00:53:22;3.50;99.90
5802;DHT22;2927;49.366;8.530;2024-01-06T00:55:47;3.50;99.90
5802;DHT22;2927;49.366;8.530;2024-01-06T00:58:13;3.50;99.90
5802;DHT22;2927;49.366;8.530;2024-01-06T01:00:38;3.50;99.90
5802;DHT22;2927;49.366;8.530;2024-01-06T01:03:04;3.60;99.90
5802;DHT22;2927;49.366;8.530;2024-01-06T01:05:30;3.60;99.90
5802;DHT22;2927;49.366;8.530;2024-01-06T01:07:55;3.60;99.90
5802;DHT22;2927;49.366;8.530;2024-01-06T01:10:21;3.60;99.90
5802;DHT22;2927;49.366;8.530;2024-01-06T01:12:46;3.60;99.90
5802;DHT22;2927;49.366;8.530;2024-01-06T01:15:12;3.60;99.90
5802;DHT22;2927;49.366;8.530;2024-01-06T01:17:37;3.60;99.90
5802;DHT22;2927;49.366;8.530;2024-01-06T01:20:03;3.60;99.90
5802;DHT22;2927;49.366;8.530;2024-01-06T01:22:29;3.60;99.90
5802;DHT22;2927;49.366;8.530;2024-01-06T01:24:55;3.50;99.90
5802;DHT22;2927;49.366;8.530;2024-01-06T01:27:21;3.50;99.90
5802;DHT22;2927;49.366;8.530;2024-01-06T01:29:46;3.50;99.90
5802;DHT22;2927;49.366;8.530;2024-01-06T01:32:13;3.50;99.90
5802;DHT22;2927;49.366;8.530;2024-01-06T01:34:39;3.50;99.90
5802;DHT22;2927;49.366;8.530;2024-01-06T01:37:04;3.50;99.90
5802;DHT22;2927;49.366;8.530;2024-01-06T01:39:30;3.50;99.90
5802;DHT22;2927;49.366;8.530;2024-01-06T01:41:55;3.50;99.90
5802;DHT22;2927;49.366;8.530;2024-01-06T01:44:21;3.50;99.90
5802;DHT22;2927;49.366;8.530;2024-01-06T01:46:47;3.40;99.90
5802;DHT22;2927;49.366;8.530;2024-01-06T01:49:12;3.30;99.90
5802;DHT22;2927;49.366;8.530;2024-01-06T01:51:38;3.30;99.90
5802;DHT22;2927;49.366;8.530;2024-01-06T01:54:06;3.30;99.90
5802;DHT22;2927;49.366;8.530;2024-01-06T01:56:32;3.30;99.90
5802;DHT22;2927;49.366;8.530;2024-01-06T01:59:12;3.30;99.90
5802;DHT22;2927;49.366;8.530;2024-01-06T02:01:39;3.30;99.90
5802;DHT22;2927;49.366;8.530;2024-01-06T02:04:04;3.40;99.90
5802;DHT22;2927;49.366;8.530;2024-01-06T02:06:30;3.40;99.90
5802;DHT22;2927;49.366;8.530;2024-01-06T02:08:55;3.40;99.90
5802;DHT22;2927;49.366;8.530;2024-01-06T02:11:21;3.40;99.90
5802;DHT22;2927;49.366;8.530;2024-01-06T02:13:47;3.30;99.90
5802;DHT22;2927;49.366;8.530;2024-01-06T02:16:12;3.30;99.90
5802;DHT22;2927;49.366;8.530;2024-01-06T02:18:38;3.20;99.90
5802;DHT22;2927;49.366;8.530;2024-01-06T02:21:04;3.10;99.90
5802;DHT22;2927;49.366;8.530;2024-01-06T02:23:34;3.10;99.90
5802;DHT22;2927;49.366;8.530;2024-01-06T02:26:00;3.10;99.90
5802;DHT22;2927;49.366;8.530;2024-01-06T02:28:26;3.10;99.90
5802;DHT22;2927;49.366;8.530;2024-01-06T02:30:52;3.10;99.90
5802;DHT22;2927;49.366;8.530;2024-01-06T02:33:17;3.10;99.90
5802;DHT22;2927;49.366;8.530;2024-01-06T02:35:47;3.10;99.90
5802;DHT22;2927;49.366;8.530;2024-01-06T02:38:13;3.20;99.90
5802;DHT22;2927;49.366;8.530;2024-01-06T02:40:39;3.20;99.90
5802;DHT22;2927;49.366;8.530;2024-01-06T02:43:04;3.20;99.90
5802;DHT22;2927;49.366;8.530;2024-01-06T02:45:30;3.20;99.90
5802;DHT22;2927;49.366;8.530;2024-01-06T02:47:55;3.30;99.90
5802;DHT22;2927;49.366;8.530;2024-01-06T02:50:21;3.30;99.90
5802;DHT22;2927;49.366;8.530;2024-01-06T02:52:47;3.30;99.90
5802;DHT22;2927;49.366;8.530;2024-01-06T02:55:13;3.30;99.90
5802;DHT22;2927;49.366;8.530;2024-01-06T02:57:40;3.30;99.90
5802;DHT22;2927;49.366;8.530;2024-01-06T03:00:07;3.30;99.90
5802;DHT22;2927;49.366;8.530;2024-01-06T03:02:33;3.40;99.90
5802;DHT22;2927;49.366;8.530;2024-01-06T03:04:58;3.40;99.90
5802;DHT22;2927;49.366;8.530;2024-01-06T03:07:24;3.50;99.90
5802;DHT22;2927;49.366;8.530;2024-01-06T03:09:49;3.60;99.90
5802;DHT22;2927;49.366;8.530;2024-01-06T03:12:15;3.60;99.90
5802;DHT22;2927;49.366;8.530;2024-01-06T03:14:40;3.70;99.90
5802;DHT22;2927;49.366;8.530;2024-01-06T03:17:06;3.70;99.90
5802;DHT22;2927;49.366;8.530;2024-01-06T03:19:32;3.80;99.90
5802;DHT22;2927;49.366;8.530;2024-01-06T03:21:57;3.90;94.20
5802;DHT22;2927;49.366;8.530;2024-01-06T03:24:24;3.90;46.20
5802;DHT22;2927;49.366;8.530;2024-01-06T03:26:50;4.00;26.40
5802;DHT22;2927;49.366;8.530;2024-01-06T03:29:15;4.10;1.00
5802;DHT22;2927;49.366;8.530;2024-01-06T03:31:45;4.10;1.00
5802;DHT22;2927;49.366;8.530;2024-01-06T03:34:10;4.20;1.00
5802;DHT22;2927;49.366;8.530;2024-01-06T03:36:37;4.30;1.00
5802;DHT22;2927;49.366;8.530;2024-01-06T03:39:03;4.40;1.00
5802;DHT22;2927;49.366;8.530;2024-01-06T03:41:28;4.50;1.00
5802;DHT22;2927;49.366;8.530;2024-01-06T03:43:54;4.50;1.00
5802;DHT22;2927;49.366;8.530;2024-01-06T03:46:19;4.50;1.00
5802;DHT22;2927;49.366;8.530;2024-01-06T03:48:45;4.50;1.00
5802;DHT22;2927;49.366;8.530;2024-01-06T03:51:12;4.50;1.00
5802;DHT22;2927;49.366;8.530;2024-01-06T03:53:38;4.50;1.00
5802;DHT22;2927;49.366;8.530;2024-01-06T03:56:04;4.50;1.00
5802;DHT22;2927;49.366;8.530;2024-01-06T03:58:29;4.60;1.00
5802;DHT22;2927;49.366;8.530;2024-01-06T04:00:55;4.60;1.00
5802;DHT22;2927;49.366;8.530;2024-01-06T04:03:20;4.60;1.00
5802;DHT22;2927;49.366;8.530;2024-01-06T04:05:46;4.60;1.00
5802;DHT22;2927;49.366;8.530;2024-01-06T04:08:12;4.60;1.00
5802;DHT22;2927;49.366;8.530;2024-01-06T04:10:37;4.60;1.00
5802;DHT22;2927;49.366;8.530;2024-01-06T04:13:03;4.60;1.00
5802;DHT22;2927;49.366;8.530;2024-01-06T04:15:28;4.60;1.00
5802;DHT22;2927;49.366;8.530;2024-01-06T04:17:54;4.60;1.00
5802;DHT22;2927;49.366;8.530;2024-01-06T04:20:20;4.60;1.00
5802;DHT22;2927;49.366;8.530;2024-01-06T04:22:45;4.60;1.00
5802;DHT22;2927;49.366;8.530;2024-01-06T04:25:11;4.60;1.00
5802;DHT22;2927;49.366;8.530;2024-01-06T04:27:37;4.60;1.00
5802;DHT22;2927;49.366;8.530;2024-01-06T04:30:02;4.60;1.00
5802;DHT22;2927;49.366;8.530;2024-01-06T04:32:28;4.60;1.00
5802;DHT22;2927;49.366;8.530;2024-01-06T04:34:53;4.60;16.50
5802;DHT22;2927;49.366;8.530;2024-01-06T04:37:19;4.60;19.20
5802;DHT22;2927;49.366;8.530;2024-01-06T04:39:44;4.60;28.20
5802;DHT22;2927;49.366;8.530;2024-01-06T04:42:10;4.60;41.80
5802;DHT22;2927;49.366;8.530;2024-01-06T04:44:35;4.60;55.30
5802;DHT22;2927;49.366;8.530;2024-01-06T04:47:01;4.60;68.10
5802;DHT22;2927;49.366;8.530;2024-01-06T04:49:26;4.60;70.30
5802;DHT22;2927;49.366;8.530;2024-01-06T04:51:52;4.60;77.20
5802;DHT22;2927;49.366;8.530;2024-01-06T04:54:17;4.60;62.80
5802;DHT22;2927;49.366;8.530;2024-01-06T04:56:43;4.60;69.30
5802;DHT22;2927;49.366;8.530;2024-01-06T04:59:08;4.60;72.00
5802;DHT22;2927;49.366;8.530;2024-01-06T05:01:34;4.60;66.40
5802;DHT22;2927;49.366;8.530;2024-01-06T05:04:00;4.60;71.00
5802;DHT22;2927;49.366;8.530;2024-01-06T05:06:25;4.50;77.00
5802;DHT22;2927;49.366;8.530;2024-01-06T05:08:51;4.60;87.50
5802;DHT22;2927;49.366;8.530;2024-01-06T05:11:16;4.60;65.90
5802;DHT22;2927;49.366;8.530;2024-01-06T05:13:42;4.60;65.90
5802;DHT22;2927;49.366;8.530;2024-01-06T05:16:08;4.60;48.10
5802;DHT22;2927;49.366;8.530;2024-01-06T05:18:34;4.60;27.00
5802;DHT22;2927;49.366;8.530;2024-01-06T05:21:00;4.60;16.60
5802;DHT22;2927;49.366;8.530;2024-01-06T05:23:26;4.60;7.70
5802;DHT22;2927;49.366;8.530;2024-01-06T05:25:51;4.60;9.80
5802;DHT22;2927;49.366;8.530;2024-01-06T05:28:17;4.60;15.20
5802;DHT22;2927;49.366;8.530;2024-01-06T05:30:42;4.70;1.00
5802;DHT22;2927;49.366;8.530;2024-01-06T05:33:12;4.60;1.00
5802;DHT22;2927;49.366;8.530;2024-01-06T05:35:39;4.70;1.00
5802;DHT22;2927;49.366;8.530;2024-01-06T05:38:04;4.70;1.00
5802;DHT22;2927;49.366;8.530;2024-01-06T05:40:30;4.70;1.00
5802;DHT22;2927;49.366;8.530;2024-01-06T05:42:55;4.70;1.00
5802;DHT22;2927;49.366;8.530;2024-01-06T05:45:22;4.70;1.00
5802;DHT22;2927;49.366;8.530;2024-01-06T05:47:48;4.70;1.00
5802;DHT22;2927;49.366;8.530;2024-01-06T05:50:16;4.70;1.00
5802;DHT22;2927;49.366;8.530;2024-01-06T05:52:42;4.70;1.00
5802;DHT22;2927;49.366;8.530;2024-01-06T05:55:08;4.70;1.00
5802;DHT22;2927;49.366;8.530;2024-01-06T05:57:34;4.70;1.00
5802;DHT22;2927;49.366;8.530;2024-01-06T05:59:59;4.70;1.00
5802;DHT22;2927;49.366;8.530;2024-01-06T06:02:25;4.80;1.00
5802;DHT22;2927;49.366;8.530;2024-01-06T06:04:51;4.80;1.00
5802;DHT22;2927;49.366;8.530;2024-01-06T06:07:17;4.80;1.00
5802;DHT22;2927;49.366;8.530;2024-01-06T06:09:43;4.80;1.00
5802;DHT22;2927;49.366;8.530;2024-01-06T06:12:09;4.80;1.00
5802;DHT22;2927;49.366;8.530;2024-01-06T06:14:34;4.70;1.00
5802;DHT22;2927;49.366;8.530;2024-01-06T06:17:00;4.70;1.00
5802;DHT22;2927;49.366;8.530;2024-01-06T06:19:25;4.70;1.00
5802;DHT22;2927;49.366;8.530;2024-01-06T06:21:51;4.70;1.00
5802;DHT22;2927;49.366;8.530;2024-01-06T06:24:17;4.70;1.00
5802;DHT22;2927;49.366;8.530;2024-01-06T06:26:43;4.70;1.00
5802;DHT22;2927;49.366;8.530;2024-01-06T06:29:08;4.80;1.00
5802;DHT22;2927;49.366;8.530;2024-01-06T06:31:34;4.80;1.00
5802;DHT22;2927;49.366;8.530;2024-01-06T06:33:59;4.80;1.00
5802;DHT22;2927;49.366;8.530;2024-01-06T06:36:25;4.80;1.00
5802;DHT22;2927;49.366;8.530;2024-01-06T06:38:50;4.80;1.00
5802;DHT22;2927;49.366;8.530;2024-01-06T06:41:16;4.80;1.00
5802;DHT22;2927;49.366;8.530;2024-01-06T06:43:42;4.80;1.00
5802;DHT22;2927;49.366;8.530;2024-01-06T06:46:08;4.80;1.00
5802;DHT22;2927;49.366;8.530;2024-01-06T06:48:33;4.80;1.00
5802;DHT22;2927;49.366;8.530;2024-01-06T06:51:01;4.80;1.00
5802;DHT22;2927;49.366;8.530;2024-01-06T06:53:27;4.80;1.00
5802;DHT22;2927;49.366;8.530;2024-01-06T06:55:53;4.80;1.00
5802;DHT22;2927;49.366;8.530;2024-01-06T06:58:18;4.80;1.00
5802;DHT22;2927;49.366;8.530;2024-01-06T07:00:44;4.80;1.00
5802;DHT22;2927;49.366;8.530;2024-01-06T07:03:09;4.80;1.00
5802;DHT22;2927;49.366;8.530;2024-01-06T07:05:35;4.80;1.00
5802;DHT22;2927;49.366;8.530;2024-01-06T07:08:01;4.80;1.00
5802;DHT22;2927;49.366;8.530;2024-01-06T07:10:27;4.80;1.00
5802;DHT22;2927;49.366;8.530;2024-01-06T07:12:52;4.80;1.00
5802;DHT22;2927;49.366;8.530;2024-01-06T07:15:18;4.80;1.00
5802;DHT22;2927;49.366;8.530;2024-01-06T07:17:44;4.80;1.00
5802;DHT22;2927;49.366;8.530;2024-01-06T07:20:09;4.80;1.00
5802;DHT22;2927;49.366;8.530;2024-01-06T07:22:36;4.80;1.00
5802;DHT22;2927;49.366;8.530;2024-01-06T07:25:01;4.80;1.00
5802;DHT22;2927;49.366;8.530;2024-01-06T07:27:27;4.80;1.00
5802;DHT22;2927;49.366;8.530;2024-01-06T07:29:52;4.80;1.00
5802;DHT22;2927;49.366;8.530;2024-01-06T07:32:18;4.80;1.00
5802;DHT22;2927;49.366;8.530;2024-01-06T07:34:44;4.80;1.00
5802;DHT22;2927;49.366;8.530;2024-01-06T07:37:09;4.70;9.80
5802;DHT22;2927;49.366;8.530;2024-01-06T07:39:35;4.70;25.50
5802;DHT22;2927;49.366;8.530;2024-01-06T07:42:00;4.80;29.90
5802;DHT22;2927;49.366;8.530;2024-01-06T07:44:28;4.70;39.40
5802;DHT22;2927;49.366;8.530;2024-01-06T07:46:53;4.80;38.90
5802;DHT22;2927;49.366;8.530;2024-01-06T07:49:19;4.80;49.10
5802;DHT22;2927;49.366;8.530;2024-01-06T07:51:44;4.80;70.60
5802;DHT22;2927;49.366;8.530;2024-01-06T07:54:10;4.80;90.10
5802;DHT22;2927;49.366;8.530;2024-01-06T07:56:37;4.80;84.90
5802;DHT22;2927;49.366;8.530;2024-01-06T07:59:03;4.90;80.50
5802;DHT22;2927;49.366;8.530;2024-01-06T08:01:29;4.90;88.60
5802;DHT22;2927;49.366;8.530;2024-01-06T08:03:55;4.90;69.40
5802;DHT22;2927;49.366;8.530;2024-01-06T08:06:20;4.90;41.80
5802;DHT22;2927;49.366;8.530;2024-01-06T08:08:46;4.90;47.70
5802;DHT22;2927;49.366;8.530;2024-01-06T08:11:12;5.00;44.50
5802;DHT22;2927;49.366;8.530;2024-01-06T08:13:37;5.00;27.50
5802;DHT22;2927;49.366;8.530;2024-01-06T08:16:04;5.00;12.00
5802;DHT22;2927;49.366;8.530;2024-01-06T08:18:30;5.00;1.00
5802;DHT22;2927;49.366;8.530;2024-01-06T08:20:55;5.00;1.00
5802;DHT22;2927;49.366;8.530;2024-01-06T08:23:21;5.10;1.00
5802;DHT22;2927;49.366;8.530;2024-01-06T08:25:48;5.10;1.00
5802;DHT22;2927;49.366;8.530;2024-01-06T08:28:14;5.20;1.00
5802;DHT22;2927;49.366;8.530;2024-01-06T08:30:40;5.20;1.00
5802;DHT22;2927;49.366;8.530;2024-01-06T08:33:06;5.20;1.00
5802;DHT22;2927;49.366;8.530;2024-01-06T08:35:31;5.20;1.00
5802;DHT22;2927;49.366;8.530;2024-01-06T08:37:57;5.20;1.00
5802;DHT22;2927;49.366;8.530;2024-01-06T08:40:23;5.30;1.00
5802;DHT22;2927;49.366;8.530;2024-01-06T08:42:49;5.30;1.00
5802;DHT22;2927;49.366;8.530;2024-01-06T08:45:15;5.30;1.00
5802;DHT22;2927;49.366;8.530;2024-01-06T08:47:40;5.40;1.00
5802;DHT22;2927;49.366;8.530;2024-01-06T08:50:06;5.40;1.00
5802;DHT22;2927;49.366;8.530;2024-01-06T08:52:32;5.40;1.00
5802;DHT22;2927;49.366;8.530;2024-01-06T08:54:58;5.40;1.00
5802;DHT22;2927;49.366;8.530;2024-01-06T08:57:23;5.40;1.00
5802;DHT22;2927;49.366;8.530;2024-01-06T08:59:49;5.40;1.00
5802;DHT22;2927;49.366;8.530;2024-01-06T09:02:14;5.40;1.00
5802;DHT22;2927;49.366;8.530;2024-01-06T09:04:40;5.40;1.00
5802;DHT22;2927;49.366;8.530;2024-01-06T09:07:05;5.40;1.00
5802;DHT22;2927;49.366;8.530;2024-01-06T09:09:31;5.50;1.00
5802;DHT22;2927;49.366;8.530;2024-01-06T09:11:57;5.40;1.00
5802;DHT22;2927;49.366;8.530;2024-01-06T09:14:22;5.50;2.00
5802;DHT22;2927;49.366;8.530;2024-01-06T09:16:48;5.50;12.50
5802;DHT22;2927;49.366;8.530;2024-01-06T09:19:14;5.40;17.00
5802;DHT22;2927;49.366;8.530;2024-01-06T09:21:39;5.50;23.00
5802;DHT22;2927;49.366;8.530;2024-01-06T09:24:05;5.50;23.30
5802;DHT22;2927;49.366;8.530;2024-01-06T09:26:34;5.50;23.70
5802;DHT22;2927;49.366;8.530;2024-01-06T09:29:02;5.50;24.00
5802;DHT22;2927;49.366;8.530;2024-01-06T09:31:29;5.50;1.00
5802;DHT22;2927;49.366;8.530;2024-01-06T09:33:55;5.50;23.00
5802;DHT22;2927;49.366;8.530;2024-01-06T09:36:20;5.60;52.80
5802;DHT22;2927;49.366;8.530;2024-01-06T09:38:46;5.60;23.20
5802;DHT22;2927;49.366;8.530;2024-01-06T09:41:11;5.60;18.90
5802;DHT22;2927;49.366;8.530;2024-01-06T09:43:37;5.70;9.50
5802;DHT22;2927;49.366;8.530;2024-01-06T09:46:14;5.80;23.50
5802;DHT22;2927;49.366;8.530;2024-01-06T09:48:41;5.80;6.30
5802;DHT22;2927;49.366;8.530;2024-01-06T09:51:11;5.90;9.50
5802;DHT22;2927;49.366;8.530;2024-01-06T09:53:43;6.00;1.00
5802;DHT22;2927;49.366;8.530;2024-01-06T09:56:12;6.10;1.00
5802;DHT22;2927;49.366;8.530;2024-01-06T09:58:39;6.20;1.00
5802;DHT22;2927;49.366;8.530;2024-01-06T10:01:05;6.20;5.00
5802;DHT22;2927;49.366;8.530;2024-01-06T10:03:31;6.20;1.00
5802;DHT22;2927;49.366;8.530;2024-01-06T10:05:59;6.30;1.00
5802;DHT22;2927;49.366;8.530;2024-01-06T10:08:29;6.30;1.00
5802;DHT22;2927;49.366;8.530;2024-01-06T10:10:55;6.30;1.00
5802;DHT22;2927;49.366;8.530;2024-01-06T10:13:20;6.30;1.00
5802;DHT22;2927;49.366;8.530;2024-01-06T10:15:46;6.30;1.00
5802;DHT22;2927;49.366;8.530;2024-01-06T10:18:12;6.30;1.00
5802;DHT22;2927;49.366;8.530;2024-01-06T10:20:38;6.40;1.00
5802;DHT22;2927;49.366;8.530;2024-01-06T10:23:08;6.50;1.00
5802;DHT22;2927;49.366;8.530;2024-01-06T10:25:35;6.60;1.00
5802;DHT22;2927;49.366;8.530;2024-01-06T10:28:01;6.70;1.00
5802;DHT22;2927;49.366;8.530;2024-01-06T10:30:28;6.80;1.00
5802;DHT22;2927;49.366;8.530;2024-01-06T10:32:54;6.90;1.00
5802;DHT22;2927;49.366;8.530;2024-01-06T10:35:19;7.00;1.00
5802;DHT22;2927;49.366;8.530;2024-01-06T10:37:45;7.10;1.00
5802;DHT22;2927;49.366;8.530;2024-01-06T10:40:15;7.10;1.00
5802;DHT22;2927;49.366;8.530;2024-01-06T10:42:42;7.10;99.90
5802;DHT22;2927;49.366;8.530;2024-01-06T10:45:09;7.10;99.90
5802;DHT22;2927;49.366;8.530;2024-01-06T10:47:36;7.10;99.90
5802;DHT22;2927;49.366;8.530;2024-01-06T10:50:03;7.00;99.90
5802;DHT22;2927;49.366;8.530;2024-01-06T10:52:29;7.00;1.00
5802;DHT22;2927;49.366;8.530;2024-01-06T10:54:55;6.90;99.90
5802;DHT22;2927;49.366;8.530;2024-01-06T10:57:21;6.80;99.90
5802;DHT22;2927;49.366;8.530;2024-01-06T10:59:50;6.70;1.00
5802;DHT22;2927;49.366;8.530;2024-01-06T11:02:16;6.60;1.00
5802;DHT22;2927;49.366;8.530;2024-01-06T11:04:46;6.60;1.00
5802;DHT22;2927;49.366;8.530;2024-01-06T11:07:15;6.50;1.00
5802;DHT22;2927;49.366;8.530;2024-01-06T11:09:57;6.50;1.00
5802;DHT22;2927;49.366;8.530;2024-01-06T11:12:24;6.50;1.00
5802;DHT22;2927;49.366;8.530;2024-01-06T11:14:51;6.50;1.00
5802;DHT22;2927;49.366;8.530;2024-01-06T11:17:48;6.50;1.00
5802;DHT22;2927;49.366;8.530;2024-01-06T11:20:15;6.50;1.00
5802;DHT22;2927;49.366;8.530;2024-01-06T11:22:40;6.50;1.00
5802;DHT22;2927;49.366;8.530;2024-01-06T11:25:09;6.60;1.00
5802;DHT22;2927;49.366;8.530;2024-01-06T11:27:38;6.50;1.00
5802;DHT22;2927;49.366;8.530;2024-01-06T11:30:04;6.50;1.00
5802;DHT22;2927;49.366;8.530;2024-01-06T11:35:10;6.40;1.00
5802;DHT22;2927;49.366;8.530;2024-01-06T11:42:48;6.40;1.00
5802;DHT22;2927;49.366;8.530;2024-01-06T11:45:14;6.40;1.00
5802;DHT22;2927;49.366;8.530;2024-01-06T11:47:40;6.40;1.00
5802;DHT22;2927;49.366;8.530;2024-01-06T11:50:12;6.40;1.00
5802;DHT22;2927;49.366;8.530;2024-01-06T11:52:38;6.40;1.00
5802;DHT22;2927;49.366;8.530;2024-01-06T11:55:05;6.30;1.00
5802;DHT22;2927;49.366;8.530;2024-01-06T11:57:33;6.30;1.00
5802;DHT22;2927;49.366;8.530;2024-01-06T11:59:59;6.30;1.00
5802;DHT22;2927;49.366;8.530;2024-01-06T12:02:24;6.30;1.00
5802;DHT22;2927;49.366;8.530;2024-01-06T12:04:51;6.30;1.00
5802;DHT22;2927;49.366;8.530;2024-01-06T12:07:18;6.30;1.00
5802;DHT22;2927;49.366;8.530;2024-01-06T12:09:48;6.30;1.00
5802;DHT22;2927;49.366;8.530;2024-01-06T12:12:17;6.30;1.00
5802;DHT22;2927;49.366;8.530;2024-01-06T12:14:43;6.30;1.00
5802;DHT22;2927;49.366;8.530;2024-01-06T12:17:10;6.30;1.00
5802;DHT22;2927;49.366;8.530;2024-01-06T12:19:39;6.40;1.00
5802;DHT22;2927;49.366;8.530;2024-01-06T12:22:09;6.30;1.00
5802;DHT22;2927;49.366;8.530;2024-01-06T12:24:35;6.40;1.00
5802;DHT22;2927;49.366;8.530;2024-01-06T12:27:01;6.40;1.00
5802;DHT22;2927;49.366;8.530;2024-01-06T12:29:27;6.40;1.00
5802;DHT22;2927;49.366;8.530;2024-01-06T12:31:59;6.50;1.00
5802;DHT22;2927;49.366;8.530;2024-01-06T12:34:25;6.50;1.00
5802;DHT22;2927;49.366;8.530;2024-01-06T12:36:53;6.50;1.00
5802;DHT22;2927;49.366;8.530;2024-01-06T12:39:20;6.50;1.00
5802;DHT22;2927;49.366;8.530;2024-01-06T12:41:46;6.50;1.00
5802;DHT22;2927;49.366;8.530;2024-01-06T12:44:11;6.50;1.00
5802;DHT22;2927;49.366;8.530;2024-01-06T12:46:38;6.50;1.00
5802;DHT22;2927;49.366;8.530;2024-01-06T12:49:03;6.50;1.00
5802;DHT22;2927;49.366;8.530;2024-01-06T12:51:29;6.50;1.00
5802;DHT22;2927;49.366;8.530;2024-01-06T12:53:55;6.50;1.00
5802;DHT22;2927;49.366;8.530;2024-01-06T12:56:20;6.50;1.00
5802;DHT22;2927;49.366;8.530;2024-01-06T12:58:46;6.50;1.00
5802;DHT22;2927;49.366;8.530;2024-01-06T13:01:11;6.50;1.00
5802;DHT22;2927;49.366;8.530;2024-01-06T13:03:37;6.50;1.00
5802;DHT22;2927;49.366;8.530;2024-01-06T13:06:04;6.50;1.00
5802;DHT22;2927;49.366;8.530;2024-01-06T13:08:30;6.50;1.00
5802;DHT22;2927;49.366;8.530;2024-01-06T13:10:56;6.50;1.00
5802;DHT22;2927;49.366;8.530;2024-01-06T13:13:22;6.50;1.00
5802;DHT22;2927;49.366;8.530;2024-01-06T13:15:47;6.60;1.00
5802;DHT22;2927;49.366;8.530;2024-01-06T13:18:13;6.50;1.00
5802;DHT22;2927;49.366;8.530;2024-01-06T13:20:39;6.60;1.00
5802;DHT22;2927;49.366;8.530;2024-01-06T13:23:07;6.60;1.00
5802;DHT22;2927;49.366;8.530;2024-01-06T13:25:34;6.60;1.00
5802;DHT22;2927;49.366;8.530;2024-01-06T13:28:00;6.60;1.00
5802;DHT22;2927;49.366;8.530;2024-01-06T13:30:25;6.60;1.00
5802;DHT22;2927;49.366;8.530;2024-01-06T13:32:52;6.60;1.00
5802;DHT22;2927;49.366;8.530;2024-01-06T13:35:20;6.60;1.00
5802;DHT22;2927;49.366;8.530;2024-01-06T13:37:46;6.60;1.00
5802;DHT22;2927;49.366;8.530;2024-01-06T13:40:14;6.60;1.00
5802;DHT22;2927;49.366;8.530;2024-01-06T13:42:40;6.50;1.00
5802;DHT22;2927;49.366;8.530;2024-01-06T13:45:06;6.60;1.00
5802;DHT22;2927;49.366;8.530;2024-01-06T13:47:32;6.50;1.00
5802;DHT22;2927;49.366;8.530;2024-01-06T13:49:57;6.50;1.00
5802;DHT22;2927;49.366;8.530;2024-01-06T13:52:24;6.50;1.00
5802;DHT22;2927;49.366;8.530;2024-01-06T13:54:49;6.50;1.00
5802;DHT22;2927;49.366;8.530;2024-01-06T13:57:15;6.60;1.00
5802;DHT22;2927;49.366;8.530;2024-01-06T13:59:41;6.60;1.00
5802;DHT22;2927;49.366;8.530;2024-01-06T14:02:08;6.60;1.00
5802;DHT22;2927;49.366;8.530;2024-01-06T14:04:34;6.50;1.00
5802;DHT22;2927;49.366;8.530;2024-01-06T14:07:00;6.60;1.00
5802;DHT22;2927;49.366;8.530;2024-01-06T14:09:27;6.60;3.90
5802;DHT22;2927;49.366;8.530;2024-01-06T14:11:53;6.60;1.00
5802;DHT22;2927;49.366;8.530;2024-01-06T14:14:20;6.60;1.00
5802;DHT22;2927;49.366;8.530;2024-01-06T14:16:45;6.70;1.00
5802;DHT22;2927;49.366;8.530;2024-01-06T14:19:12;6.70;1.00
5802;DHT22;2927;49.366;8.530;2024-01-06T14:21:38;6.60;22.20
5802;DHT22;2927;49.366;8.530;2024-01-06T14:24:04;6.60;23.10
5802;DHT22;2927;49.366;8.530;2024-01-06T14:26:31;6.60;1.00
5802;DHT22;2927;49.366;8.530;2024-01-06T14:28:57;6.60;21.50
5802;DHT22;2927;49.366;8.530;2024-01-06T14:31:24;6.60;23.70
5802;DHT22;2927;49.366;8.530;2024-01-06T14:33:49;6.60;37.80
5802;DHT22;2927;49.366;8.530;2024-01-06T14:36:15;6.60;60.50
5802;DHT22;2927;49.366;8.530;2024-01-06T14:38:41;6.50;92.00
5802;DHT22;2927;49.366;8.530;2024-01-06T14:41:06;6.60;95.70
5802;DHT22;2927;49.366;8.530;2024-01-06T14:43:32;6.60;90.00
5802;DHT22;2927;49.366;8.530;2024-01-06T14:45:58;6.60;79.80
5802;DHT22;2927;49.366;8.530;2024-01-06T14:48:23;6.60;99.90
5802;DHT22;2927;49.366;8.530;2024-01-06T14:50:49;6.60;99.90
5802;DHT22;2927;49.366;8.530;2024-01-06T14:53:15;6.60;99.90
5802;DHT22;2927;49.366;8.530;2024-01-06T14:55:41;6.60;99.90
5802;DHT22;2927;49.366;8.530;2024-01-06T14:58:07;6.60;99.90
5802;DHT22;2927;49.366;8.530;2024-01-06T15:00:34;6.50;99.90
5802;DHT22;2927;49.366;8.530;2024-01-06T15:03:00;6.50;99.90
5802;DHT22;2927;49.366;8.530;2024-01-06T15:05:26;6.50;99.90
5802;DHT22;2927;49.366;8.530;2024-01-06T15:07:54;6.50;99.90
5802;DHT22;2927;49.366;8.530;2024-01-06T15:10:20;6.50;99.90
5802;DHT22;2927;49.366;8.530;2024-01-06T15:12:46;6.50;99.90
5802;DHT22;2927;49.366;8.530;2024-01-06T15:15:13;6.40;99.90
5802;DHT22;2927;49.366;8.530;2024-01-06T15:17:39;6.40;99.90
5802;DHT22;2927;49.366;8.530;2024-01-06T15:20:05;6.40;99.90
5802;DHT22;2927;49.366;8.530;2024-01-06T15:22:31;6.40;99.90
5802;DHT22;2927;49.366;8.530;2024-01-06T15:24:56;6.40;99.90
5802;DHT22;2927;49.366;8.530;2024-01-06T15:27:22;6.30;99.90
5802;DHT22;2927;49.366;8.530;2024-01-06T15:29:48;6.40;99.90
5802;DHT22;2927;49.366;8.530;2024-01-06T15:32:14;6.30;99.90
5802;DHT22;2927;49.366;8.530;2024-01-06T15:34:39;6.30;99.90
5802;DHT22;2927;49.366;8.530;2024-01-06T15:37:05;6.20;99.90
5802;DHT22;2927;49.366;8.530;2024-01-06T15:39:30;6.20;99.90
5802;DHT22;2927;49.366;8.530;2024-01-06T15:41:56;6.20;99.90
5802;DHT22;2927;49.366;8.530;2024-01-06T15:44:22;6.20;99.90
5802;DHT22;2927;49.366;8.530;2024-01-06T15:46:47;6.20;99.90
5802;DHT22;2927;49.366;8.530;2024-01-06T15:49:13;6.20;99.90
5802;DHT22;2927;49.366;8.530;2024-01-06T15:51:39;6.20;99.90
5802;DHT22;2927;49.366;8.530;2024-01-06T15:54:04;6.10;99.90
5802;DHT22;2927;49.366;8.530;2024-01-06T15:56:31;6.10;99.90
5802;DHT22;2927;49.366;8.530;2024-01-06T15:58:57;6.10;99.90
5802;DHT22;2927;49.366;8.530;2024-01-06T16:01:23;6.10;99.90
5802;DHT22;2927;49.366;8.530;2024-01-06T16:03:49;6.10;99.90
5802;DHT22;2927;49.366;8.530;2024-01-06T16:06:15;6.10;99.90
5802;DHT22;2927;49.366;8.530;2024-01-06T16:08:40;6.10;99.90
5802;DHT22;2927;49.366;8.530;2024-01-06T16:11:06;6.00;99.90
5802;DHT22;2927;49.366;8.530;2024-01-06T16:13:32;6.10;99.90
5802;DHT22;2927;49.366;8.530;2024-01-06T16:15:57;6.10;99.90
5802;DHT22;2927;49.366;8.530;2024-01-06T16:18:23;6.00;99.90
5802;DHT22;2927;49.366;8.530;2024-01-06T16:20:49;6.00;99.90
5802;DHT22;2927;49.366;8.530;2024-01-06T16:23:14;6.00;99.90
5802;DHT22;2927;49.366;8.530;2024-01-06T16:25:43;6.00;99.90
5802;DHT22;2927;49.366;8.530;2024-01-06T16:28:09;6.00;99.90